Time;durP1;ratioP1;P1;durP2;ratioP2;P2;SDS_P1;SDS_P2;PMS_P1;PMS_P2;Temp;Humidity;BMP_temperature;BMP_pressure;BME280_temperature;BME280_humidity;BME280_pressure;Samples;Min_cycle;Max_cycle;Signal;HPM_P1;HPM_P2
2022/08/23 00:01:59;;;;;;;1.88;0.98;;;21.30;70.00;;;;;;5071380;28;20032;-74
2022/08/23 00:04:30;;;;;;;3.10;1.08;;;21.40;69.80;;;;;;5073179;28;20032;-74
2022/08/23 00:06:56;;;;;;;2.70;0.93;;;21.60;70.20;;;;;;5069145;28;20073;-74
2022/08/23 00:09:25;;;;;;;2.88;1.30;;;21.50;70.10;;;;;;5069923;28;20385;-74
2022/08/23 00:11:54;;;;;;;3.60;1.15;;;21.50;69.80;;;;;;5061653;28;20106;-74
2022/08/23 00:14:28;;;;;;;3.40;1.48;;;21.50;70.00;;;;;;5066516;28;20051;-74
2022/08/23 00:16:55;;;;;;;2.83;1.65;;;21.30;70.20;;;;;;5062847;28;20124;-74
2022/08/23 00:19:22;;;;;;;3.33;1.02;;;21.40;70.40;;;;;;5056055;28;20529;-73
2022/08/23 00:21:49;;;;;;;1.80;0.75;;;21.00;70.60;;;;;;5061723;28;20039;-73
2022/08/23 00:24:16;;;;;;;2.65;1.13;;;20.90;71.10;;;;;;5072447;28;20064;-73
2022/08/23 00:26:51;;;;;;;3.15;1.20;;;20.80;71.60;;;;;;5070616;28;21284;-74
2022/08/23 00:29:18;;;;;;;2.90;1.30;;;20.70;71.90;;;;;;5060867;28;20383;-74
2022/08/23 00:31:44;;;;;;;3.08;1.10;;;20.80;71.20;;;;;;5064519;28;20478;-74
2022/08/23 00:34:11;;;;;;;3.40;1.20;;;20.60;71.40;;;;;;5069730;28;20035;-74
2022/08/23 00:36:38;;;;;;;4.18;1.10;;;20.40;71.60;;;;;;5060497;28;20060;-74
2022/08/23 00:39:04;;;;;;;3.65;1.50;;;20.30;71.50;;;;;;5065584;28;20025;-73
2022/08/23 00:41:31;;;;;;;2.97;1.60;;;20.20;71.00;;;;;;5064655;28;20044;-74
2022/08/23 00:49:35;;;;;;;2.28;0.95;;;20.30;71.80;;;;;;5058575;28;20528;-74
2022/08/23 00:52:08;;;;;;;2.22;1.05;;;20.20;71.90;;;;;;5055633;28;20139;-74
2022/08/23 00:54:36;;;;;;;3.28;1.15;;;20.00;72.00;;;;;;5071804;28;20115;-74
2022/08/23 00:57:07;;;;;;;3.03;1.10;;;20.10;72.10;;;;;;5069395;28;20052;-73
2022/08/23 00:59:32;;;;;;;1.80;0.90;;;20.00;72.30;;;;;;5070505;28;20090;-74
2022/08/23 01:01:59;;;;;;;2.60;1.20;;;20.00;72.20;;;;;;5061274;28;20414;-74
2022/08/23 01:04:32;;;;;;;2.67;0.98;;;19.60;73.10;;;;;;5070560;28;20150;-73
2022/08/23 01:07:24;;;;;;;4.20;0.90;;;19.60;73.20;;;;;;5060927;28;20036;-74
2022/08/23 01:09:53;;;;;;;3.20;1.25;;;19.80;73.20;;;;;;5066666;28;20037;-74
2022/08/23 01:12:29;;;;;;;1.83;1.05;;;19.60;73.80;;;;;;5066548;28;20482;-74
2022/08/23 01:15:05;;;;;;;4.03;1.33;;;19.40;73.80;;;;;;5069741;28;20048;-73
2022/08/23 01:17:52;;;;;;;3.42;1.00;;;19.40;73.80;;;;;;5068914;28;20028;-73
2022/08/23 01:20:23;;;;;;;1.90;0.80;;;19.60;72.30;;;;;;5052364;28;20048;-74
2022/08/23 01:22:58;;;;;;;1.75;0.88;;;19.50;72.70;;;;;;5050916;28;20033;-74
2022/08/23 01:25:27;;;;;;;2.55;1.15;;;19.20;72.80;;;;;;5055579;28;20025;-73
2022/08/23 01:27:53;;;;;;;3.38;1.08;;;19.30;72.70;;;;;;5070302;28;20072;-73
2022/08/23 01:30:22;;;;;;;1.75;0.90;;;19.30;72.90;;;;;;5065641;28;20060;-73
2022/08/23 01:32:55;;;;;;;2.90;1.45;;;19.20;73.00;;;;;;5052357;28;20036;-73
2022/08/23 01:35:30;;;;;;;3.65;1.13;;;19.20;73.40;;;;;;5057353;28;20025;-74
2022/08/23 01:37:56;;;;;;;1.98;0.93;;;19.20;73.50;;;;;;5064054;28;20028;-75
2022/08/23 01:40:21;;;;;;;3.88;0.98;;;19.40;73.30;;;;;;5059181;28;20390;-74
2022/08/23 01:42:48;;;;;;;4.40;1.02;;;19.40;73.30;;;;;;5069733;28;20043;-73
2022/08/23 01:45:15;;;;;;;1.85;0.80;;;19.20;73.70;;;;;;5071355;28;20032;-74
2022/08/23 01:47:41;;;;;;;2.40;1.15;;;19.00;74.10;;;;;;5060768;28;20078;-73
2022/08/23 01:50:10;;;;;;;2.28;0.98;;;19.30;74.40;;;;;;5061590;28;20033;-73
2022/08/23 01:52:36;;;;;;;2.88;1.45;;;19.10;74.30;;;;;;5067833;28;20425;-73
2022/08/23 01:55:03;;;;;;;2.40;1.10;;;19.20;74.90;;;;;;5063378;28;20033;-73
2022/08/23 01:57:31;;;;;;;2.55;1.00;;;19.40;74.50;;;;;;5069150;28;20075;-73
2022/08/23 01:59:57;;;;;;;3.67;1.40;;;19.30;74.50;;;;;;5067448;28;20075;-75
2022/08/23 02:02:24;;;;;;;3.67;1.85;;;19.10;75.30;;;;;;5071564;28;20036;-73
2022/08/23 02:04:51;;;;;;;3.63;1.45;;;19.20;75.50;;;;;;5063771;28;20386;-73
2022/08/23 02:07:17;;;;;;;2.03;1.10;;;19.40;74.80;;;;;;5071097;28;20025;-74
2022/08/23 02:09:43;;;;;;;1.77;0.90;;;19.30;74.40;;;;;;5055451;28;20025;-73
2022/08/23 02:12:08;;;;;;;2.40;1.00;;;18.70;75.20;;;;;;5041044;28;20402;-74
2022/08/23 02:14:36;;;;;;;1.73;1.00;;;18.50;75.90;;;;;;5063433;28;20035;-73
2022/08/23 02:17:03;;;;;;;2.83;0.98;;;18.80;75.50;;;;;;5071180;28;20490;-74
2022/08/23 02:19:29;;;;;;;2.42;1.20;;;18.70;75.70;;;;;;5057219;28;20036;-74
2022/08/23 02:21:55;;;;;;;3.47;1.20;;;18.70;75.50;;;;;;5062007;28;20034;-74
2022/08/23 02:24:23;;;;;;;2.13;1.02;;;18.70;75.50;;;;;;5058388;28;20045;-73
2022/08/23 02:26:52;;;;;;;2.33;1.02;;;18.50;76.10;;;;;;5056361;28;20024;-73
2022/08/23 02:29:19;;;;;;;2.30;1.08;;;18.70;75.70;;;;;;5070245;28;20029;-73
2022/08/23 02:31:46;;;;;;;2.35;1.23;;;18.50;75.70;;;;;;5065487;28;20095;-73
2022/08/23 02:34:14;;;;;;;4.00;1.10;;;18.50;75.80;;;;;;5073168;28;20066;-73
2022/08/23 02:36:40;;;;;;;2.08;1.05;;;18.70;75.80;;;;;;5071988;28;20033;-73
2022/08/23 02:39:06;;;;;;;2.60;1.40;;;18.50;75.40;;;;;;5062972;28;20056;-73
2022/08/23 02:41:33;;;;;;;3.65;1.05;;;18.50;75.90;;;;;;5066530;28;20097;-73
2022/08/23 02:43:59;;;;;;;1.92;1.00;;;18.40;76.10;;;;;;5065569;28;20029;-74
2022/08/23 02:46:25;;;;;;;4.40;1.35;;;18.30;76.20;;;;;;5058723;28;20079;-73
2022/08/23 02:48:51;;;;;;;3.15;1.27;;;18.40;76.20;;;;;;5064742;28;20513;-74
2022/08/23 02:51:17;;;;;;;4.10;1.33;;;18.40;76.70;;;;;;5055529;28;20128;-73
2022/08/23 02:53:43;;;;;;;3.80;1.23;;;18.20;76.10;;;;;;5070878;28;20040;-74
2022/08/23 02:56:10;;;;;;;2.45;1.05;;;18.40;76.00;;;;;;5071657;28;20044;-73
2022/08/23 02:58:36;;;;;;;1.83;1.00;;;18.40;75.90;;;;;;5063958;28;20021;-74
2022/08/23 03:01:02;;;;;;;2.40;1.17;;;18.40;75.80;;;;;;5060349;28;20032;-72
2022/08/23 03:03:28;;;;;;;2.47;1.20;;;18.40;75.90;;;;;;5055496;28;20032;-73
2022/08/23 03:05:54;;;;;;;2.47;1.35;;;18.50;76.20;;;;;;5065290;28;20035;-73
2022/08/23 03:08:21;;;;;;;4.05;1.25;;;18.50;75.80;;;;;;5046918;28;20053;-73
2022/08/23 03:10:50;;;;;;;2.78;1.05;;;18.40;76.00;;;;;;5052843;28;20024;-73
2022/08/23 03:13:16;;;;;;;3.20;1.27;;;18.40;75.90;;;;;;5061568;28;20124;-73
2022/08/23 03:15:42;;;;;;;2.67;1.00;;;18.40;76.20;;;;;;5065753;28;20032;-73
2022/08/23 03:18:09;;;;;;;2.53;1.00;;;18.20;76.50;;;;;;5056792;28;20549;-73
2022/08/23 03:20:35;;;;;;;4.50;1.60;;;18.30;76.50;;;;;;5055876;28;20048;-73
2022/08/23 03:23:01;;;;;;;2.08;1.10;;;18.50;76.90;;;;;;5066092;28;20029;-73
2022/08/23 03:25:27;;;;;;;4.85;1.40;;;18.40;76.70;;;;;;5061776;28;20041;-73
2022/08/23 03:27:53;;;;;;;4.35;1.23;;;18.40;76.50;;;;;;5059281;28;20045;-73
2022/08/23 03:30:19;;;;;;;2.95;1.20;;;18.40;76.10;;;;;;5067293;28;20039;-73
2022/08/23 03:32:45;;;;;;;2.40;1.10;;;18.30;76.60;;;;;;5066811;28;20055;-73
2022/08/23 03:35:11;;;;;;;3.20;1.23;;;18.40;76.00;;;;;;5043325;28;20429;-73
2022/08/23 03:37:36;;;;;;;3.85;1.42;;;18.50;75.90;;;;;;5045575;28;20021;-73
2022/08/23 03:40:04;;;;;;;2.58;1.42;;;18.60;76.90;;;;;;5062637;28;20506;-73
2022/08/23 03:42:30;;;;;;;4.03;1.25;;;18.40;76.70;;;;;;5067961;28;20031;-73
2022/08/23 03:44:55;;;;;;;3.42;1.70;;;18.50;76.10;;;;;;5067172;28;20029;-73
2022/08/23 03:47:21;;;;;;;3.05;1.20;;;18.40;77.30;;;;;;5068710;28;20024;-73
2022/08/23 03:49:47;;;;;;;2.80;1.10;;;18.20;76.60;;;;;;5055667;28;20056;-73
2022/08/23 03:52:13;;;;;;;2.55;1.05;;;18.20;77.10;;;;;;5068763;28;20076;-73
2022/08/23 03:54:39;;;;;;;2.22;1.00;;;18.20;76.80;;;;;;5067246;28;20578;-73
2022/08/23 03:57:08;;;;;;;3.47;1.27;;;17.90;77.20;;;;;;5051082;28;20168;-73
2022/08/23 03:59:36;;;;;;;4.28;1.15;;;18.00;77.90;;;;;;5051320;28;20041;-73
2022/08/23 04:02:03;;;;;;;2.60;1.27;;;18.00;77.40;;;;;;5051967;28;20036;-73
2022/08/23 04:04:28;;;;;;;4.07;1.58;;;18.40;77.40;;;;;;5059361;28;20032;-73
2022/08/23 04:06:55;;;;;;;2.38;1.35;;;18.20;77.30;;;;;;5054118;28;20037;-73
2022/08/23 04:09:21;;;;;;;3.95;1.20;;;18.30;77.40;;;;;;5049072;28;20032;-73
2022/08/23 04:11:47;;;;;;;1.60;0.90;;;18.10;77.30;;;;;;5056569;28;20072;-73
2022/08/23 04:14:13;;;;;;;3.03;1.52;;;17.70;76.80;;;;;;5054737;28;20025;-73
2022/08/23 04:16:39;;;;;;;4.00;1.40;;;18.10;77.60;;;;;;5063630;28;20025;-73
2022/08/23 04:19:07;;;;;;;3.08;1.40;;;18.30;76.70;;;;;;5064644;28;20040;-73
2022/08/23 04:21:36;;;;;;;3.08;1.10;;;17.90;76.60;;;;;;5058162;28;20039;-73
2022/08/23 04:24:02;;;;;;;2.97;1.00;;;17.90;77.10;;;;;;5052316;28;20042;-73
2022/08/23 04:26:28;;;;;;;2.22;1.20;;;18.00;77.10;;;;;;5059348;28;20055;-73
2022/08/23 04:28:54;;;;;;;3.15;1.10;;;18.10;77.30;;;;;;5050702;28;20033;-73
2022/08/23 04:31:20;;;;;;;4.13;1.42;;;18.30;77.10;;;;;;5050855;28;20086;-73
2022/08/23 04:33:46;;;;;;;3.10;1.10;;;18.30;77.00;;;;;;5056501;28;20032;-73
2022/08/23 04:36:12;;;;;;;2.80;1.10;;;18.50;76.90;;;;;;5049535;28;20039;-73
2022/08/23 04:38:37;;;;;;;3.83;1.45;;;18.30;76.70;;;;;;5051183;28;20475;-73
2022/08/23 04:43:48;;;;;;;3.08;1.63;;;18.10;78.00;;;;;;5058408;28;20508;-73
2022/08/23 04:46:15;;;;;;;3.70;1.20;;;18.20;77.60;;;;;;5064805;28;20127;-73
2022/08/23 04:48:45;;;;;;;3.38;1.38;;;18.40;77.70;;;;;;5043792;28;20127;-73
2022/08/23 04:51:11;;;;;;;4.50;1.42;;;18.40;77.40;;;;;;5064688;28;20063;-73
2022/08/23 04:53:38;;;;;;;2.67;1.42;;;18.40;77.50;;;;;;5058267;28;20467;-73
2022/08/23 04:56:05;;;;;;;3.25;1.58;;;18.50;77.40;;;;;;5062465;28;20426;-73
2022/08/23 04:58:31;;;;;;;3.30;1.75;;;18.90;77.10;;;;;;5054474;28;20037;-73
2022/08/23 05:00:59;;;;;;;3.33;1.45;;;18.90;77.10;;;;;;5060132;28;20107;-73
2022/08/23 05:03:26;;;;;;;2.92;1.50;;;18.60;77.50;;;;;;5058980;28;20031;-73
2022/08/23 05:05:53;;;;;;;3.33;1.17;;;18.50;77.50;;;;;;5065113;28;20042;-73
2022/08/23 05:08:19;;;;;;;3.08;1.35;;;18.80;77.30;;;;;;5061432;28;20067;-73
2022/08/23 05:10:45;;;;;;;2.80;1.13;;;18.30;77.90;;;;;;5063509;28;20060;-73
2022/08/23 05:13:12;;;;;;;2.67;1.30;;;18.30;77.90;;;;;;5045931;28;20509;-73
2022/08/23 05:15:38;;;;;;;2.58;1.23;;;18.50;77.70;;;;;;5062929;28;20035;-73
2022/08/23 05:18:04;;;;;;;4.55;1.58;;;18.20;78.20;;;;;;5056261;28;20124;-73
2022/08/23 05:20:30;;;;;;;3.35;1.60;;;18.20;78.50;;;;;;5044738;28;20104;-73
2022/08/23 05:22:56;;;;;;;2.88;1.38;;;18.50;77.70;;;;;;5047796;28;20123;-73
2022/08/23 05:25:21;;;;;;;2.97;1.27;;;18.00;78.50;;;;;;5061378;28;20522;-73
2022/08/23 05:27:47;;;;;;;2.92;1.45;;;17.90;78.90;;;;;;5054795;28;20033;-73
2022/08/23 05:30:13;;;;;;;3.05;1.45;;;18.30;78.10;;;;;;5063099;28;20033;-73
2022/08/23 05:32:39;;;;;;;3.05;1.70;;;18.80;77.10;;;;;;5061127;28;20106;-73
2022/08/23 05:35:05;;;;;;;3.47;1.50;;;18.90;77.30;;;;;;5063578;28;20032;-73
2022/08/23 05:37:31;;;;;;;3.28;1.35;;;19.00;76.50;;;;;;5063986;28;20039;-73
2022/08/23 05:39:57;;;;;;;6.07;1.35;;;19.00;76.50;;;;;;5064267;28;20126;-73
2022/08/23 05:42:23;;;;;;;2.80;1.30;;;18.80;76.80;;;;;;5064079;28;20510;-73
2022/08/23 05:44:49;;;;;;;4.93;1.58;;;18.90;76.50;;;;;;5062383;28;20028;-73
2022/08/23 05:47:15;;;;;;;2.55;1.30;;;18.90;76.60;;;;;;5064080;28;20375;-72
2022/08/23 05:49:41;;;;;;;3.63;1.20;;;18.90;76.80;;;;;;5063739;28;20032;-72
2022/08/23 05:52:10;;;;;;;2.90;1.40;;;18.70;77.20;;;;;;5064299;28;20033;-73
2022/08/23 05:54:36;;;;;;;2.92;1.27;;;18.50;77.70;;;;;;5062680;28;20448;-73
2022/08/23 05:57:03;;;;;;;2.30;1.17;;;18.60;77.40;;;;;;5063654;28;20045;-73
2022/08/23 05:59:29;;;;;;;2.72;1.10;;;18.60;77.10;;;;;;5063709;28;20032;-72
2022/08/23 06:01:55;;;;;;;2.50;1.10;;;18.50;78.00;;;;;;5063642;28;20116;-73
2022/08/23 06:04:21;;;;;;;1.98;1.10;;;18.40;78.10;;;;;;5062103;28;20040;-73
2022/08/23 06:06:47;;;;;;;3.53;1.60;;;18.50;78.40;;;;;;5064140;28;20086;-73
2022/08/23 06:09:14;;;;;;;5.07;1.60;;;18.60;77.00;;;;;;5064055;28;20046;-73
2022/08/23 06:11:42;;;;;;;2.90;1.20;;;18.80;77.30;;;;;;5062269;28;20641;-73
2022/08/23 06:14:08;;;;;;;3.15;1.20;;;18.80;77.10;;;;;;5062991;28;20037;-73
2022/08/23 06:16:37;;;;;;;4.05;1.27;;;18.70;78.10;;;;;;5063239;28;20032;-73
2022/08/23 06:19:04;;;;;;;2.72;1.27;;;19.10;76.00;;;;;;5062621;28;20025;-72
2022/08/23 06:21:30;;;;;;;2.40;1.30;;;19.10;76.10;;;;;;5062756;28;20035;-73
2022/08/23 06:23:57;;;;;;;3.38;1.50;;;19.20;75.60;;;;;;5064287;28;20059;-73
2022/08/23 06:26:32;;;;;;;3.15;1.17;;;19.40;75.30;;;;;;5046408;28;20951;-73
2022/08/23 06:29:04;;;;;;;2.40;1.20;;;19.60;74.90;;;;;;5049178;28;20030;-72
2022/08/23 06:31:46;;;;;;;3.42;1.40;;;19.70;74.80;;;;;;5054665;28;20053;-71
2022/08/23 06:34:21;;;;;;;2.70;1.00;;;19.80;74.90;;;;;;5052432;28;20048;-71
2022/08/23 06:36:55;;;;;;;3.28;1.20;;;19.70;77.70;;;;;;5040137;28;20045;-72
2022/08/23 06:39:23;;;;;;;4.00;1.65;;;20.00;74.30;;;;;;5041257;28;20046;-72
2022/08/23 06:41:50;;;;;;;4.18;1.05;;;20.30;73.80;;;;;;5044369;28;20044;-71
2022/08/23 06:44:18;;;;;;;3.10;1.17;;;20.50;73.50;;;;;;5050291;28;20446;-71
2022/08/23 06:46:45;;;;;;;5.68;1.40;;;20.70;73.20;;;;;;5054546;28;20103;-73
2022/08/23 06:49:11;;;;;;;3.22;1.67;;;20.80;73.00;;;;;;5063045;28;20585;-73
2022/08/23 06:51:48;;;;;;;2.63;1.10;;;21.00;73.40;;;;;;5059402;28;20044;-73
2022/08/23 06:54:15;;;;;;;4.18;1.85;;;21.40;72.90;;;;;;5064888;28;20493;-73
2022/08/23 06:56:42;;;;;;;3.85;1.30;;;21.90;72.00;;;;;;5061843;28;20643;-73
2022/08/23 06:59:08;;;;;;;2.40;1.27;;;22.80;71.40;;;;;;5065558;28;20036;-73
2022/08/23 07:01:40;;;;;;;2.55;1.30;;;23.30;69.70;;;;;;5054063;28;20426;-73
2022/08/23 07:04:08;;;;;;;3.83;1.73;;;24.20;68.20;;;;;;5050853;28;20059;-72
2022/08/23 07:06:34;;;;;;;3.55;1.40;;;25.00;67.20;;;;;;5048719;28;20021;-73
2022/08/23 07:09:00;;;;;;;2.67;1.10;;;25.50;66.50;;;;;;5059539;28;20063;-73
2022/08/23 07:11:30;;;;;;;1.98;1.13;;;25.00;66.70;;;;;;5059593;28;20470;-73
2022/08/23 07:13:58;;;;;;;5.57;1.40;;;25.10;66.10;;;;;;5065132;28;20605;-73
2022/08/23 07:16:24;;;;;;;4.75;1.48;;;26.30;65.40;;;;;;5050345;28;21008;-72
2022/08/23 07:18:51;;;;;;;5.47;1.20;;;26.00;65.60;;;;;;5050847;28;20167;-72
2022/08/23 07:21:18;;;;;;;2.15;1.08;;;25.90;64.50;;;;;;5048487;28;20398;-72
2022/08/23 07:23:45;;;;;;;7.40;1.48;;;26.50;64.90;;;;;;5051716;28;20105;-72
2022/08/23 07:26:13;;;;;;;4.20;1.50;;;26.20;64.40;;;;;;5049271;28;20029;-72
2022/08/23 07:28:40;;;;;;;1.90;1.10;;;27.00;64.80;;;;;;5063780;28;20028;-72
2022/08/23 07:31:18;;;;;;;3.25;1.10;;;26.50;64.00;;;;;;5066768;28;20033;-72
2022/08/23 07:33:45;;;;;;;2.53;1.23;;;27.80;64.10;;;;;;5067248;28;20044;-73
2022/08/23 07:36:15;;;;;;;4.40;1.58;;;28.50;63.30;;;;;;5065824;28;20466;-73
2022/08/23 07:38:42;;;;;;;3.45;1.23;;;27.70;64.30;;;;;;5050383;28;20025;-73
2022/08/23 07:41:08;;;;;;;3.22;1.40;;;23.90;67.60;;;;;;5045734;28;20112;-73
2022/08/23 07:43:34;;;;;;;3.38;1.42;;;22.60;69.80;;;;;;5045971;28;20056;-73
2022/08/23 07:46:01;;;;;;;2.30;1.10;;;22.20;70.40;;;;;;5064586;28;20068;-73
2022/08/23 07:48:26;;;;;;;4.13;1.83;;;22.00;71.00;;;;;;5065192;28;20094;-73
2022/08/23 07:50:55;;;;;;;3.88;1.20;;;22.00;71.50;;;;;;5066021;28;20060;-73
2022/08/23 07:53:21;;;;;;;8.75;1.58;;;21.80;73.30;;;;;;5066230;28;20421;-74
2022/08/23 07:55:46;;;;;;;2.85;1.25;;;21.90;74.30;;;;;;5065577;28;20111;-74
2022/08/23 07:58:12;;;;;;;4.32;1.70;;;22.10;72.70;;;;;;5065193;28;20040;-73
2022/08/23 08:00:38;;;;;;;3.00;1.25;;;22.20;74.50;;;;;;5065937;28;20031;-74
2022/08/23 08:03:04;;;;;;;3.33;1.40;;;22.30;74.10;;;;;;5058039;28;20116;-74
2022/08/23 08:05:33;;;;;;;5.15;1.30;;;22.20;72.40;;;;;;5048954;28;20123;-73
2022/08/23 08:08:00;;;;;;;3.63;1.60;;;22.10;72.60;;;;;;5060911;28;20028;-74
2022/08/23 08:10:27;;;;;;;2.60;1.25;;;22.10;72.30;;;;;;5064648;28;20036;-74
2022/08/23 08:12:52;;;;;;;4.07;1.05;;;22.10;72.70;;;;;;5046877;28;20033;-74
2022/08/23 08:15:21;;;;;;;3.30;1.27;;;22.20;73.80;;;;;;5046937;28;20029;-74
2022/08/23 08:17:48;;;;;;;5.38;1.60;;;22.30;73.20;;;;;;5052516;28;20021;-73
2022/08/23 08:20:14;;;;;;;3.03;0.98;;;22.20;73.40;;;;;;5055895;28;20040;-74
2022/08/23 08:22:40;;;;;;;4.03;1.63;;;22.00;71.50;;;;;;5050731;28;20041;-74
2022/08/23 08:25:08;;;;;;;3.03;1.30;;;22.00;72.70;;;;;;5054498;28;20048;-73
2022/08/23 08:27:33;;;;;;;3.25;1.33;;;22.00;71.70;;;;;;5051856;28;20117;-74
2022/08/23 08:29:59;;;;;;;3.00;1.17;;;22.30;73.80;;;;;;5065277;28;20082;-74
2022/08/23 08:32:25;;;;;;;2.42;1.17;;;22.70;73.30;;;;;;5064369;28;20028;-73
2022/08/23 08:34:51;;;;;;;8.30;1.70;;;22.60;73.60;;;;;;5064058;28;20024;-74
2022/08/23 08:37:16;;;;;;;5.88;1.67;;;22.50;72.80;;;;;;5055049;28;20283;-74
2022/08/23 08:39:45;;;;;;;2.53;1.23;;;22.70;72.00;;;;;;5057879;28;20036;-74
2022/08/23 08:42:11;;;;;;;2.63;1.30;;;25.40;69.20;;;;;;5059970;28;20024;-74
2022/08/23 08:44:51;;;;;;;2.75;1.50;;;27.00;67.70;;;;;;5049814;28;20040;-74
2022/08/23 08:47:42;;;;;;;3.25;1.10;;;28.40;68.10;;;;;;5050232;28;20087;-74
2022/08/23 08:50:19;;;;;;;4.18;1.25;;;29.00;64.10;;;;;;5052960;28;20907;-74
2022/08/23 08:52:50;;;;;;;2.80;1.10;;;29.40;64.50;;;;;;5053546;28;20067;-74
2022/08/23 08:55:24;;;;;;;2.53;1.30;;;29.10;64.90;;;;;;5064777;28;20045;-74
2022/08/23 08:57:52;;;;;;;6.80;1.08;;;29.40;65.10;;;;;;5062468;28;20406;-74
2022/08/23 09:00:24;;;;;;;3.72;1.30;;;29.20;66.50;;;;;;5062381;28;20024;-74
2022/08/23 09:02:50;;;;;;;4.57;1.60;;;29.50;64.80;;;;;;5052201;28;20532;-74
2022/08/23 09:05:24;;;;;;;3.50;1.17;;;29.10;65.60;;;;;;5047939;28;20610;-74
2022/08/23 09:08:10;;;;;;;3.17;1.30;;;27.70;64.70;;;;;;5045910;28;20052;-74
2022/08/23 09:11:00;;;;;;;4.30;1.52;;;28.20;64.50;;;;;;5051525;28;20566;-74
2022/08/23 09:13:41;;;;;;;6.53;1.40;;;28.00;65.10;;;;;;5041245;28;20124;-74
2022/08/23 09:16:18;;;;;;;13.27;1.98;;;27.40;65.70;;;;;;5046719;28;20089;-74
2022/08/23 09:18:44;;;;;;;2.58;1.10;;;27.00;68.40;;;;;;5045442;28;20033;-74
2022/08/23 09:21:11;;;;;;;8.35;1.42;;;26.20;68.80;;;;;;5044876;28;20102;-74
2022/08/23 09:23:46;;;;;;;2.78;1.40;;;25.70;68.80;;;;;;5053167;28;20103;-72
2022/08/23 09:26:22;;;;;;;3.70;1.20;;;25.40;68.00;;;;;;5043148;28;20064;-74
2022/08/23 09:28:50;;;;;;;3.00;1.17;;;25.30;66.50;;;;;;5045599;28;20113;-74
2022/08/23 09:31:39;;;;;;;3.03;1.20;;;25.30;66.30;;;;;;5063520;28;20078;-74
2022/08/23 09:34:05;;;;;;;2.00;1.20;;;25.40;66.10;;;;;;5062193;28;20912;-74
2022/08/23 09:36:33;;;;;;;4.55;1.65;;;25.80;66.40;;;;;;5064334;28;20128;-74
2022/08/23 09:39:04;;;;;;;2.10;1.15;;;26.10;65.20;;;;;;5064609;28;20036;-74
2022/08/23 09:41:35;;;;;;;2.85;1.23;;;26.30;66.20;;;;;;5064454;28;20036;-74
2022/08/23 09:44:03;;;;;;;4.22;1.35;;;26.50;66.40;;;;;;5057345;28;20427;-75
2022/08/23 09:46:36;;;;;;;2.65;1.15;;;26.60;65.70;;;;;;5063055;28;20037;-74
2022/08/23 09:49:25;;;;;;;1.85;0.82;;;26.60;65.00;;;;;;5062224;28;20028;-74
2022/08/23 09:51:52;;;;;;;4.30;0.88;;;26.70;63.90;;;;;;5043233;28;20123;-74
2022/08/23 09:54:29;;;;;;;2.42;1.05;;;26.90;64.50;;;;;;5045271;28;20036;-74
2022/08/23 09:56:59;;;;;;;2.50;1.17;;;26.90;63.60;;;;;;5062955;28;20933;-74
2022/08/23 09:59:25;;;;;;;1.38;0.68;;;27.20;64.20;;;;;;5063403;28;20039;-74
2022/08/23 10:01:54;;;;;;;1.65;0.80;;;27.30;63.00;;;;;;5063182;28;20401;-75
2022/08/23 10:04:41;;;;;;;2.38;0.95;;;27.40;62.20;;;;;;5055027;28;20044;-74
2022/08/23 10:07:37;;;;;;;2.13;1.20;;;27.40;62.60;;;;;;5064366;28;20032;-74
2022/08/23 10:10:31;;;;;;;2.00;0.80;;;27.50;61.70;;;;;;5046131;28;20498;-74
2022/08/23 10:12:57;;;;;;;3.90;1.42;;;27.50;63.30;;;;;;5063560;28;20098;-74
2022/08/23 10:15:39;;;;;;;1.95;1.17;;;27.60;61.70;;;;;;5062924;28;20116;-72
2022/08/23 10:18:17;;;;;;;3.28;1.15;;;27.70;63.00;;;;;;5058023;28;20044;-74
2022/08/23 10:21:19;;;;;;;3.95;1.98;;;28.00;63.10;;;;;;5063508;28;20112;-74
2022/08/23 10:24:03;;;;;;;2.45;0.90;;;27.70;60.60;;;;;;5054503;28;20033;-74
2022/08/23 10:26:31;;;;;;;;;;;27.30;60.80;;;;;;5064045;28;20036;-74
2022/08/23 10:32:18;;;;;;;1.40;0.70;;;27.60;63.40;;;;;;5062980;28;20052;-74
2022/08/23 10:34:59;;;;;;;1.75;0.77;;;27.80;64.10;;;;;;5062842;28;20035;-74
2022/08/23 10:37:58;;;;;;;5.78;1.35;;;28.10;63.80;;;;;;5063457;28;20036;-74
2022/08/23 10:40:33;;;;;;;10.65;1.63;;;28.10;63.20;;;;;;5036304;28;20025;-74
2022/08/23 10:43:30;;;;;;;2.17;1.00;;;28.00;62.70;;;;;;5043071;28;20032;-74
2022/08/23 10:45:59;;;;;;;2.50;1.20;;;28.30;62.80;;;;;;5042875;28;20040;-74
2022/08/23 10:48:30;;;;;;;2.28;0.98;;;28.40;64.90;;;;;;5047620;28;20471;-74
2022/08/23 10:51:08;;;;;;;1.98;0.88;;;28.20;63.40;;;;;;5044913;28;20025;-74
2022/08/23 10:53:45;;;;;;;3.15;1.00;;;28.30;61.90;;;;;;5064833;28;20033;-74
2022/08/23 10:56:20;;;;;;;5.28;1.00;;;28.40;61.40;;;;;;5065884;28;20045;-71
2022/08/23 10:58:54;;;;;;;2.58;1.10;;;28.40;61.50;;;;;;5061596;28;20370;-74
2022/08/23 11:01:26;;;;;;;5.03;0.95;;;28.70;65.00;;;;;;5053801;28;20081;-74
2022/08/23 11:03:58;;;;;;;1.48;0.80;;;28.70;61.80;;;;;;5049250;28;20041;-74
2022/08/23 11:06:36;;;;;;;1.20;0.63;;;28.40;60.80;;;;;;5066646;28;20678;-74
2022/08/23 11:09:29;;;;;;;3.78;1.10;;;28.40;60.90;;;;;;5066826;28;20589;-74
2022/08/23 11:12:14;;;;;;;2.33;0.60;;;28.70;64.80;;;;;;5038278;28;20044;-74
2022/08/23 11:14:58;;;;;;;1.63;0.95;;;28.60;61.30;;;;;;5066782;28;20028;-74
2022/08/23 11:17:51;;;;;;;1.67;0.73;;;28.60;62.80;;;;;;5061592;28;20097;-74
2022/08/23 11:20:47;;;;;;;1.58;0.80;;;28.60;62.00;;;;;;5049870;28;20036;-74
2022/08/23 11:23:15;;;;;;;3.75;0.93;;;28.70;62.60;;;;;;5066410;28;20490;-75
2022/08/23 11:25:43;;;;;;;2.60;1.10;;;29.10;65.90;;;;;;5066593;28;20036;-76
2022/08/23 11:28:24;;;;;;;3.20;0.90;;;29.10;62.60;;;;;;5065036;28;20097;-73
2022/08/23 11:30:56;;;;;;;2.58;0.77;;;29.20;61.70;;;;;;5062394;28;20033;-74
2022/08/23 11:33:45;;;;;;;1.63;0.82;;;29.40;64.20;;;;;;5057625;28;20690;-72
2022/08/23 11:36:23;;;;;;;4.00;1.00;;;29.70;65.10;;;;;;5058650;28;20040;-74
2022/08/23 11:38:49;;;;;;;3.03;0.80;;;29.80;62.70;;;;;;5067331;28;20067;-74
2022/08/23 11:41:22;;;;;;;2.03;0.88;;;29.70;63.30;;;;;;5062977;28;20044;-74
2022/08/23 11:43:54;;;;;;;2.10;1.10;;;29.90;64.40;;;;;;5056315;28;20021;-74
2022/08/23 11:46:26;;;;;;;2.85;0.90;;;29.80;65.20;;;;;;5053816;28;20029;-71
2022/08/23 11:49:12;;;;;;;2.17;0.98;;;29.80;63.60;;;;;;5046683;28;20048;-72
2022/08/23 11:51:58;;;;;;;2.53;0.80;;;29.90;62.60;;;;;;5046415;28;20071;-73
2022/08/23 11:54:29;;;;;;;2.40;0.85;;;30.10;64.50;;;;;;5025367;28;20048;-76
2022/08/23 11:57:10;;;;;;;0.82;0.43;;;30.10;61.00;;;;;;5052554;28;20094;-76
2022/08/23 11:59:36;;;;;;;2.42;0.77;;;30.10;62.30;;;;;;5048466;28;20108;-75
2022/08/23 12:02:39;;;;;;;2.80;1.00;;;30.40;64.80;;;;;;5045959;28;20037;-75
2022/08/23 12:05:31;;;;;;;1.38;0.55;;;30.50;62.40;;;;;;5056215;28;20789;-75
2022/08/23 12:08:02;;;;;;;1.08;0.43;;;30.60;61.20;;;;;;5060411;28;20051;-74
2022/08/23 12:10:40;;;;;;;2.10;0.60;;;30.60;58.70;;;;;;5058818;28;20032;-72
2022/08/23 12:13:18;;;;;;;1.10;0.60;;;30.70;62.10;;;;;;5066040;28;20036;-74
2022/08/23 12:16:18;;;;;;;1.85;0.63;;;30.80;63.10;;;;;;5068352;28;20056;-74
2022/08/23 12:18:52;;;;;;;2.55;0.60;;;31.00;59.10;;;;;;5069106;28;20032;-73
2022/08/23 12:21:26;;;;;;;;;;;30.90;61.30;;;;;;5059628;28;20475;-74
2022/08/23 12:23:58;;;;;;;0.82;0.30;;;31.00;58.70;;;;;;5063427;28;19909;-73
2022/08/23 12:26:27;;;;;;;1.98;0.70;;;31.00;60.70;;;;;;5061638;28;20037;-73
2022/08/23 12:29:02;;;;;;;0.95;0.47;;;31.10;60.00;;;;;;5048722;28;20032;-73
2022/08/23 12:31:37;;;;;;;1.23;0.50;;;31.20;61.00;;;;;;5068286;28;20024;-73
2022/08/23 12:34:23;;;;;;;0.85;0.40;;;31.40;59.00;;;;;;5066169;28;20048;-72
2022/08/23 12:37:13;;;;;;;1.42;0.60;;;31.20;56.30;;;;;;5064211;28;20033;-73
2022/08/23 12:39:49;;;;;;;1.10;0.50;;;31.30;60.20;;;;;;5047965;28;20033;-73
2022/08/23 12:42:25;;;;;;;4.07;0.40;;;31.20;56.00;;;;;;5059362;28;20067;-74
2022/08/23 12:45:18;;;;;;;1.27;0.32;;;31.10;54.30;;;;;;5058943;28;20030;-75
2022/08/23 12:47:57;;;;;;;1.05;0.60;;;31.00;56.60;;;;;;5052313;28;20493;-74
2022/08/23 12:50:27;;;;;;;1.23;0.63;;;31.30;58.40;;;;;;5054296;28;20028;-75
2022/08/23 12:53:00;;;;;;;0.60;0.38;;;31.40;58.10;;;;;;5065396;28;20048;-74
2022/08/23 12:55:31;;;;;;;0.90;0.40;;;31.40;59.00;;;;;;5051335;28;20437;-74
2022/08/23 12:57:58;;;;;;;3.13;0.57;;;31.30;57.70;;;;;;5064666;28;20056;-74
2022/08/23 13:00:26;;;;;;;4.70;0.70;;;31.50;59.50;;;;;;5068357;28;20037;-74
2022/08/23 13:02:55;;;;;;;3.58;0.60;;;31.60;58.90;;;;;;5068107;28;20043;-74
2022/08/23 13:05:35;;;;;;;2.92;0.43;;;31.50;57.50;;;;;;5060089;28;20258;-74
2022/08/23 13:08:04;;;;;;;3.90;0.60;;;31.10;53.00;;;;;;5063984;28;20035;-74
2022/08/23 13:10:30;;;;;;;0.45;0.30;;;31.10;54.40;;;;;;5063411;28;20024;-74
2022/08/23 13:12:56;;;;;;;1.65;0.50;;;31.50;60.60;;;;;;5063678;28;20132;-74
2022/08/23 13:15:52;;;;;;;0.77;0.40;;;31.20;55.40;;;;;;5067734;28;20103;-74
2022/08/23 13:18:37;;;;;;;2.17;0.57;;;31.30;55.00;;;;;;5059928;28;20032;-74